Time;durP1;ratioP1;P1;durP2;ratioP2;P2;SDS_P1;SDS_P2;PMS_P1;PMS_P2;Temp;Humidity;BMP_temperature;BMP_pressure;BME280_temperature;BME280_humidity;BME280_pressure;Samples;Min_cycle;Max_cycle;Signal;HPM_P1;HPM_P2
2022/12/30 00:01:17;;;;;;;11.57;2.00;;;7.80;99.90;;;;;;5055884;28;20162;-85
2022/12/30 00:03:43;;;;;;;10.63;2.17;;;7.80;99.90;;;;;;5054623;28;20239;-85
2022/12/30 00:06:14;;;;;;;7.17;1.60;;;7.80;99.90;;;;;;5055671;28;20647;-83
2022/12/30 00:08:47;;;;;;;4.70;1.70;;;7.80;99.90;;;;;;5055858;28;20494;-84
2022/12/30 00:11:29;;;;;;;12.20;2.07;;;7.70;99.90;;;;;;5055756;28;20161;-83
2022/12/30 00:33:51;;;;;;;14.40;2.50;;;7.70;99.90;;;;;;5055172;28;20655;-84
2022/12/30 00:36:17;;;;;;;14.13;2.43;;;7.70;99.90;;;;;;5053983;28;20163;-83
2022/12/30 00:38:42;;;;;;;11.70;2.20;;;7.70;99.90;;;;;;5054021;28;20182;-87
2022/12/30 00:43:54;;;;;;;14.77;2.10;;;7.70;99.90;;;;;;5033766;28;20214;-83
2022/12/30 00:46:22;;;;;;;9.53;2.03;;;7.70;99.90;;;;;;5034966;28;20270;-83
2022/12/30 00:57:02;;;;;;;11.90;2.37;;;7.60;99.90;;;;;;5525010;22;20235;-93
2022/12/30 00:59:28;;;;;;;14.53;2.10;;;7.60;99.90;;;;;;5033637;28;20510;-91
2022/12/30 01:01:54;;;;;;;6.13;1.73;;;7.60;99.90;;;;;;5033104;28;20257;-91
2022/12/30 01:04:20;;;;;;;6.50;1.80;;;7.60;99.90;;;;;;5033002;28;20294;-92
2022/12/30 01:06:46;;;;;;;10.80;2.47;;;7.50;99.90;;;;;;5033144;28;20293;-92
2022/12/30 01:09:12;;;;;;;11.43;2.60;;;7.50;99.90;;;;;;5032951;28;20275;-91
2022/12/30 01:11:38;;;;;;;16.10;2.30;;;7.50;99.90;;;;;;5034230;28;20182;-91
2022/12/30 01:14:04;;;;;;;10.73;2.17;;;7.50;99.90;;;;;;5033452;28;20246;-91
2022/12/30 01:16:30;;;;;;;7.87;2.00;;;7.50;99.90;;;;;;5032912;28;20206;-91
2022/12/30 01:18:56;;;;;;;8.83;1.60;;;7.60;99.90;;;;;;5032715;28;20531;-91
2022/12/30 01:21:21;;;;;;;8.13;2.40;;;7.50;99.90;;;;;;5034412;28;20167;-91
2022/12/30 01:23:47;;;;;;;9.70;2.00;;;7.60;99.90;;;;;;5032982;28;20186;-91
2022/12/30 01:26:13;;;;;;;9.30;2.07;;;7.60;99.90;;;;;;5033117;28;20206;-91
2022/12/30 01:28:39;;;;;;;11.70;2.17;;;7.60;99.90;;;;;;5034885;28;20182;-90
2022/12/30 01:31:10;;;;;;;8.77;1.80;;;7.60;99.90;;;;;;5033101;28;20721;-92
2022/12/30 01:33:37;;;;;;;9.67;2.03;;;7.60;99.90;;;;;;5032781;28;20212;-93
2022/12/30 01:36:05;;;;;;;7.97;1.93;;;7.60;99.90;;;;;;5032199;28;20236;-92
2022/12/30 01:38:33;;;;;;;7.77;2.00;;;7.60;99.90;;;;;;5032687;28;20217;-90
2022/12/30 01:40:59;;;;;;;9.47;2.17;;;7.70;99.90;;;;;;5032741;28;20232;-91
2022/12/30 01:43:44;;;;;;;8.83;1.83;;;7.70;99.90;;;;;;5032736;28;20626;-89
2022/12/30 01:46:16;;;;;;;11.67;2.17;;;7.60;99.90;;;;;;5032612;28;20233;-90
2022/12/30 01:48:43;;;;;;;10.43;2.17;;;7.60;99.90;;;;;;5033784;28;20257;-90
2022/12/30 01:51:31;;;;;;;8.07;2.03;;;7.60;99.90;;;;;;5032578;28;20186;-90
2022/12/30 01:54:01;;;;;;;11.30;2.20;;;7.60;99.90;;;;;;5032083;28;20236;-93
2022/12/30 01:56:35;;;;;;;7.87;2.03;;;7.60;99.90;;;;;;5033327;28;20209;-91
2022/12/30 01:59:04;;;;;;;11.37;2.37;;;7.60;99.90;;;;;;5032277;28;20233;-91
2022/12/30 02:01:33;;;;;;;12.03;2.30;;;7.60;99.90;;;;;;5032548;28;20174;-91
2022/12/30 02:04:04;;;;;;;8.03;1.93;;;7.60;99.90;;;;;;5032384;28;20237;-92
2022/12/30 02:06:55;;;;;;;12.53;1.93;;;7.60;99.90;;;;;;5032613;28;20199;-92
2022/12/30 02:09:22;;;;;;;10.40;2.03;;;7.60;99.90;;;;;;5032390;28;20159;-91
2022/12/30 02:11:48;;;;;;;9.43;1.90;;;7.50;99.90;;;;;;5032402;28;20166;-91
2022/12/30 02:14:15;;;;;;;6.30;1.90;;;7.50;99.90;;;;;;5033270;28;20192;-93
2022/12/30 02:16:59;;;;;;;7.80;2.10;;;7.50;99.90;;;;;;5032122;28;20202;-90
2022/12/30 02:19:45;;;;;;;8.97;1.50;;;7.50;99.90;;;;;;5032149;28;20171;-91
2022/12/30 02:22:38;;;;;;;6.00;1.73;;;7.40;99.90;;;;;;4991992;28;20190;-92
2022/12/30 02:25:21;;;;;;;7.57;1.97;;;7.40;99.90;;;;;;5031666;28;20572;-90
2022/12/30 02:27:53;;;;;;;10.80;2.03;;;7.50;99.90;;;;;;5031880;28;20256;-93
2022/12/30 02:30:23;;;;;;;6.77;1.90;;;7.50;99.90;;;;;;5031921;28;20167;-94
2022/12/30 02:33:05;;;;;;;10.13;2.10;;;7.50;99.90;;;;;;5032030;28;20178;-90
2022/12/30 02:35:53;;;;;;;7.40;1.83;;;7.50;99.90;;;;;;5032017;28;20190;-92
2022/12/30 02:38:19;;;;;;;8.27;1.90;;;7.40;99.90;;;;;;5031796;28;20619;-91
2022/12/30 02:46:57;;;;;;;10.30;2.30;;;7.40;99.90;;;;;;5034096;28;20237;-93
2022/12/30 02:49:24;;;;;;;9.50;2.13;;;7.40;99.90;;;;;;5008088;28;20198;-89
2022/12/30 02:54:36;;;;;;;11.17;1.90;;;7.40;99.90;;;;;;5037099;28;20212;-91
2022/12/30 02:57:02;;;;;;;12.60;1.93;;;7.40;99.90;;;;;;5035095;28;20360;-94
2022/12/30 03:05:57;;;;;;;7.37;1.73;;;7.40;99.90;;;;;;5036593;28;20244;-92
2022/12/30 03:08:35;;;;;;;4.43;1.63;;;7.40;99.90;;;;;;5035256;28;20221;-91
2022/12/30 03:11:16;;;;;;;10.17;2.03;;;7.50;99.90;;;;;;5035002;28;20166;-92
2022/12/30 03:14:09;;;;;;;16.10;2.13;;;7.50;99.90;;;;;;5035293;28;20217;-91
2022/12/30 03:16:53;;;;;;;5.90;1.70;;;7.50;99.90;;;;;;5034899;28;20195;-89
2022/12/30 03:19:23;;;;;;;10.00;1.70;;;7.50;99.90;;;;;;5036182;28;20193;-92
2022/12/30 03:21:53;;;;;;;10.43;2.20;;;7.40;99.90;;;;;;5034994;28;20197;-92
2022/12/30 03:27:13;;;;;;;7.90;1.80;;;7.40;99.90;;;;;;5036327;28;20205;-91
2022/12/30 03:29:45;;;;;;;11.17;2.40;;;7.40;99.90;;;;;;5035322;28;20220;-92
2022/12/30 03:32:13;;;;;;;8.67;2.00;;;7.40;99.90;;;;;;5035121;28;20167;-90
2022/12/30 03:34:40;;;;;;;12.33;2.43;;;7.40;99.90;;;;;;5035934;28;20194;-90
2022/12/30 03:37:47;;;;;;;9.03;2.40;;;7.40;99.90;;;;;;5034395;28;20206;-92
2022/12/30 03:40:36;;;;;;;11.83;2.23;;;7.40;99.90;;;;;;4978085;28;20180;-93
2022/12/30 03:43:03;;;;;;;7.77;2.00;;;7.40;99.90;;;;;;4977633;28;20226;-91
2022/12/30 03:45:29;;;;;;;6.63;1.93;;;7.30;99.90;;;;;;5021286;28;20309;-90
2022/12/30 03:47:54;;;;;;;7.73;2.03;;;7.30;99.90;;;;;;5034184;28;20211;-91
2022/12/30 03:50:20;;;;;;;10.50;2.13;;;7.30;99.90;;;;;;5034862;28;20179;-91
2022/12/30 03:52:46;;;;;;;12.40;2.60;;;7.30;99.90;;;;;;5035363;28;20258;-92
2022/12/30 03:55:12;;;;;;;15.17;2.60;;;7.20;99.90;;;;;;5034388;28;20210;-92
2022/12/30 03:57:38;;;;;;;13.37;2.70;;;7.20;99.90;;;;;;5033330;28;20226;-92
2022/12/30 04:00:08;;;;;;;8.77;1.97;;;7.10;99.90;;;;;;5034999;28;20171;-92
2022/12/30 04:02:35;;;;;;;10.70;2.23;;;7.10;99.90;;;;;;5034632;28;20185;-90
2022/12/30 04:05:01;;;;;;;13.33;3.30;;;7.00;99.90;;;;;;5033930;28;20227;-93
2022/12/30 04:07:27;;;;;;;12.83;2.77;;;7.00;99.90;;;;;;5032982;28;20669;-91
2022/12/30 04:09:52;;;;;;;8.23;1.97;;;7.00;99.90;;;;;;5034171;28;20242;-92
2022/12/30 04:12:18;;;;;;;9.20;2.10;;;7.00;99.90;;;;;;5034061;28;20270;-91
2022/12/30 04:14:44;;;;;;;11.60;2.10;;;6.90;99.90;;;;;;5034176;28;20190;-93
2022/12/30 04:17:10;;;;;;;10.17;2.20;;;6.90;99.90;;;;;;5034094;28;20267;-90
2022/12/30 04:19:36;;;;;;;6.63;1.77;;;6.90;99.90;;;;;;5034110;28;20174;-92
2022/12/30 04:22:02;;;;;;;13.63;2.40;;;6.80;99.90;;;;;;5033820;28;20178;-90
2022/12/30 04:24:27;;;;;;;7.53;2.10;;;6.80;99.90;;;;;;5033741;28;20201;-93
2022/12/30 04:26:53;;;;;;;12.33;2.40;;;6.80;99.90;;;;;;5034078;28;20281;-90
2022/12/30 04:29:19;;;;;;;11.10;2.13;;;6.70;99.90;;;;;;5033692;28;20181;-91
2022/12/30 04:31:45;;;;;;;10.80;2.60;;;6.70;99.90;;;;;;5035137;28;20246;-90
2022/12/30 04:34:14;;;;;;;10.50;2.43;;;6.70;99.90;;;;;;5035660;28;20167;-93
2022/12/30 04:36:41;;;;;;;8.73;2.53;;;6.60;99.90;;;;;;5037829;28;20198;-92
2022/12/30 04:39:07;;;;;;;19.30;2.40;;;6.60;99.90;;;;;;5037237;28;20194;-91
2022/12/30 04:41:33;;;;;;;10.93;2.47;;;6.60;99.90;;;;;;5033580;28;20353;-91
2022/12/30 04:44:01;;;;;;;12.83;2.37;;;6.60;99.90;;;;;;5033493;28;20209;-92
2022/12/30 04:46:28;;;;;;;11.30;2.10;;;6.60;99.90;;;;;;5033656;28;20198;-93
2022/12/30 04:48:54;;;;;;;10.23;2.03;;;6.60;99.90;;;;;;5034617;28;20155;-92
2022/12/30 04:51:21;;;;;;;17.70;2.60;;;6.60;99.90;;;;;;5033453;28;20173;-91
2022/12/30 04:53:47;;;;;;;7.20;2.17;;;6.60;99.90;;;;;;5033291;28;20167;-91
2022/12/30 04:56:12;;;;;;;11.83;2.17;;;6.50;99.90;;;;;;5033483;28;20203;-89
2022/12/30 04:58:39;;;;;;;13.57;2.43;;;6.50;99.90;;;;;;5032821;28;20272;-92
2022/12/30 05:01:05;;;;;;;10.97;2.43;;;6.50;99.90;;;;;;5032739;28;20647;-90
2022/12/30 05:03:31;;;;;;;7.90;2.00;;;6.50;99.90;;;;;;5033216;28;20175;-92
2022/12/30 05:05:56;;;;;;;7.33;1.83;;;6.50;99.90;;;;;;5032942;28;20221;-90
2022/12/30 05:08:23;;;;;;;7.63;2.50;;;6.50;99.90;;;;;;5032905;28;20174;-93
2022/12/30 05:10:49;;;;;;;15.07;2.90;;;6.40;99.90;;;;;;5032363;28;20281;-91
2022/12/30 05:13:15;;;;;;;12.33;3.00;;;6.40;99.90;;;;;;5033110;28;20183;-93
2022/12/30 05:15:41;;;;;;;10.80;2.53;;;6.40;99.90;;;;;;5032742;28;20183;-91
2022/12/30 05:18:08;;;;;;;11.17;2.30;;;6.40;99.90;;;;;;5032767;28;20191;-89
2022/12/30 05:20:34;;;;;;;12.17;2.40;;;6.30;99.90;;;;;;5032740;28;20709;-90
2022/12/30 05:23:00;;;;;;;14.30;2.67;;;6.40;99.90;;;;;;5032690;28;20210;-89
2022/12/30 05:28:10;;;;;;;6.27;2.00;;;6.20;99.90;;;;;;5034194;28;20169;-89
2022/12/30 05:30:36;;;;;;;10.00;2.30;;;6.20;99.90;;;;;;5032449;28;20178;-91
2022/12/30 05:33:04;;;;;;;16.47;2.43;;;6.20;99.90;;;;;;5032866;28;20179;-90
2022/12/30 05:35:30;;;;;;;7.23;2.23;;;6.20;99.90;;;;;;5033949;28;20155;-93
2022/12/30 05:37:56;;;;;;;6.33;1.70;;;6.10;99.90;;;;;;5032719;28;20289;-90
2022/12/30 05:40:22;;;;;;;9.60;2.50;;;6.00;99.90;;;;;;5032403;28;20178;-92
2022/12/30 05:42:47;;;;;;;6.30;1.80;;;6.00;99.90;;;;;;5032438;28;20190;-90
2022/12/30 05:45:13;;;;;;;12.10;2.27;;;5.90;99.90;;;;;;5031898;28;20218;-90
2022/12/30 05:47:39;;;;;;;7.17;1.93;;;5.90;99.90;;;;;;5032024;28;20214;-91
2022/12/30 05:50:05;;;;;;;14.73;2.50;;;5.80;99.90;;;;;;5032022;28;20270;-91
2022/12/30 05:52:31;;;;;;;8.93;2.43;;;5.80;99.90;;;;;;5032087;28;20174;-92
2022/12/30 05:54:56;;;;;;;8.60;2.10;;;5.70;99.90;;;;;;5032135;28;20612;-92
2022/12/30 05:57:22;;;;;;;9.13;1.90;;;5.70;99.90;;;;;;5031959;28;20198;-92
2022/12/30 05:59:48;;;;;;;10.77;2.37;;;5.70;99.90;;;;;;5032864;28;20155;-90
2022/12/30 06:02:14;;;;;;;13.00;2.30;;;5.70;99.90;;;;;;5032037;28;20183;-90
2022/12/30 06:04:40;;;;;;;11.33;2.53;;;5.70;99.90;;;;;;5031787;28;20765;-91
2022/12/30 06:07:06;;;;;;;14.57;2.03;;;5.70;99.90;;;;;;5031377;28;20205;-89
2022/12/30 06:09:31;;;;;;;8.60;2.20;;;5.60;99.90;;;;;;5032165;28;20181;-90
2022/12/30 06:11:57;;;;;;;6.63;1.90;;;5.70;99.90;;;;;;5032129;28;20243;-91
2022/12/30 06:14:23;;;;;;;9.33;2.07;;;5.60;99.90;;;;;;5031923;28;20175;-89
2022/12/30 06:16:49;;;;;;;7.90;1.70;;;5.70;99.90;;;;;;5031661;28;20202;-92
2022/12/30 06:19:15;;;;;;;10.60;2.20;;;5.80;99.90;;;;;;5032004;28;20521;-90
2022/12/30 06:21:40;;;;;;;10.97;2.00;;;5.90;99.90;;;;;;5035158;28;20630;-92
2022/12/30 06:24:06;;;;;;;9.63;2.00;;;5.80;99.90;;;;;;5037209;28;20891;-91
2022/12/30 06:26:32;;;;;;;12.70;3.03;;;5.80;99.90;;;;;;5035369;28;20197;-90
2022/12/30 06:28:58;;;;;;;15.20;2.10;;;5.70;99.90;;;;;;5035727;28;20174;-93
2022/12/30 06:31:24;;;;;;;7.30;2.27;;;5.70;99.90;;;;;;5035793;28;20171;-89
2022/12/30 06:33:50;;;;;;;9.03;2.03;;;5.70;99.90;;;;;;5035800;28;20174;-90
2022/12/30 06:36:16;;;;;;;6.10;1.70;;;5.70;99.90;;;;;;5035604;28;20255;-90
2022/12/30 06:38:41;;;;;;;14.70;2.40;;;5.60;99.90;;;;;;5036560;28;20238;-89
2022/12/30 06:41:07;;;;;;;4.83;1.70;;;5.60;99.90;;;;;;5036483;28;20159;-90
2022/12/30 06:43:34;;;;;;;9.07;2.00;;;5.50;99.90;;;;;;5036826;28;20171;-92
2022/12/30 06:45:59;;;;;;;7.63;2.00;;;5.50;99.90;;;;;;5050393;28;20210;-92
2022/12/30 06:48:25;;;;;;;12.60;2.10;;;5.40;99.90;;;;;;5036886;28;20174;-92
2022/12/30 06:51:02;;;;;;;10.80;2.03;;;5.40;99.90;;;;;;5035726;28;20202;-92
2022/12/30 06:53:27;;;;;;;12.90;1.73;;;5.30;99.90;;;;;;5035891;28;20201;-90
2022/12/30 06:55:53;;;;;;;7.30;2.00;;;5.30;99.90;;;;;;5035837;28;20178;-90
2022/12/30 06:58:19;;;;;;;13.03;1.87;;;5.30;99.90;;;;;;5035555;28;20234;-90
2022/12/30 07:00:45;;;;;;;9.70;2.23;;;5.30;99.90;;;;;;5035325;28;20190;-93
2022/12/30 07:03:12;;;;;;;13.67;1.90;;;5.30;99.90;;;;;;5035072;28;20217;-92
2022/12/30 07:05:38;;;;;;;9.57;2.13;;;5.40;99.90;;;;;;5035132;28;20296;-90
2022/12/30 07:08:04;;;;;;;9.53;1.90;;;5.40;99.90;;;;;;5035743;28;20209;-90
2022/12/30 07:10:30;;;;;;;11.40;1.90;;;5.30;99.90;;;;;;5035142;28;20634;-90
2022/12/30 07:12:55;;;;;;;8.87;1.70;;;5.40;99.90;;;;;;5034629;28;20250;-91
2022/12/30 07:15:21;;;;;;;10.63;1.93;;;5.40;99.90;;;;;;5034727;28;20657;-89
2022/12/30 07:17:47;;;;;;;11.90;1.77;;;5.40;99.90;;;;;;5034476;28;20644;-90
2022/12/30 07:20:13;;;;;;;13.00;2.43;;;5.40;99.90;;;;;;5034424;28;20272;-91
2022/12/30 07:22:40;;;;;;;11.73;1.70;;;5.40;99.90;;;;;;5035795;28;20159;-90
2022/12/30 07:25:06;;;;;;;7.60;1.67;;;5.40;99.90;;;;;;5034597;28;20202;-89
2022/12/30 07:27:33;;;;;;;7.20;1.70;;;5.40;99.90;;;;;;5036255;28;20199;-90
2022/12/30 07:30:05;;;;;;;10.97;1.93;;;5.40;99.90;;;;;;5035411;28;20656;-90
2022/12/30 07:32:31;;;;;;;9.80;2.37;;;5.40;99.90;;;;;;5035748;28;20262;-91
2022/12/30 07:34:59;;;;;;;11.67;1.90;;;5.30;99.90;;;;;;5035612;28;20206;-90
2022/12/30 07:37:35;;;;;;;6.23;1.50;;;5.30;99.90;;;;;;5035276;28;20616;-91
2022/12/30 07:40:00;;;;;;;9.40;1.83;;;5.20;99.90;;;;;;5035407;28;20174;-90
2022/12/30 07:42:27;;;;;;;13.03;2.10;;;5.20;99.90;;;;;;5035477;28;20174;-92
2022/12/30 07:44:53;;;;;;;9.03;1.60;;;5.30;99.90;;;;;;5035028;28;20209;-91
2022/12/30 07:47:20;;;;;;;9.63;1.57;;;5.30;99.90;;;;;;5034999;28;20194;-90
2022/12/30 07:49:46;;;;;;;9.07;2.33;;;5.40;99.90;;;;;;5034553;28;20170;-89
2022/12/30 07:52:17;;;;;;;7.50;1.60;;;5.40;99.90;;;;;;5035033;28;20181;-92
2022/12/30 07:54:44;;;;;;;10.13;1.80;;;5.40;99.90;;;;;;5035249;28;20175;-90
2022/12/30 07:57:10;;;;;;;5.80;1.67;;;5.40;99.90;;;;;;5034026;28;20213;-91
2022/12/30 07:59:35;;;;;;;9.17;1.93;;;5.40;99.90;;;;;;5035133;28;20183;-89
2022/12/30 08:02:01;;;;;;;8.50;1.70;;;5.40;99.90;;;;;;5035396;28;20175;-91
2022/12/30 08:04:29;;;;;;;10.87;2.00;;;5.40;99.90;;;;;;5035379;28;20568;-89
2022/12/30 08:06:57;;;;;;;11.70;2.20;;;5.40;99.90;;;;;;5035476;28;20542;-89
2022/12/30 08:09:23;;;;;;;7.50;1.80;;;5.40;99.90;;;;;;5035068;28;20233;-89
2022/12/30 08:11:48;;;;;;;6.30;1.60;;;5.40;99.90;;;;;;5034238;28;20167;-90
2022/12/30 08:14:14;;;;;;;9.07;1.90;;;5.40;99.90;;;;;;5033880;28;20171;-89
2022/12/30 08:16:40;;;;;;;12.60;1.97;;;5.50;99.90;;;;;;5033556;28;20732;-89
2022/12/30 08:19:06;;;;;;;8.23;1.70;;;5.50;99.90;;;;;;5034962;28;20171;-90
2022/12/30 08:21:32;;;;;;;8.53;2.17;;;5.60;99.90;;;;;;5033683;28;20645;-90
2022/12/30 08:23:57;;;;;;;11.33;1.73;;;5.60;99.90;;;;;;5033695;28;20234;-89
2022/12/30 08:26:24;;;;;;;13.87;1.93;;;5.60;99.90;;;;;;5033814;28;20293;-89
2022/12/30 08:28:51;;;;;;;9.53;2.17;;;5.60;99.90;;;;;;5033277;28;20195;-87
2022/12/30 08:31:25;;;;;;;8.27;1.87;;;5.60;99.90;;;;;;5033717;28;20249;-89
2022/12/30 08:33:52;;;;;;;5.87;1.53;;;5.70;99.90;;;;;;5034059;28;20162;-88
2022/12/30 08:36:20;;;;;;;8.07;1.93;;;5.80;99.90;;;;;;5035013;28;20282;-89
2022/12/30 08:38:49;;;;;;;5.07;1.30;;;5.90;99.90;;;;;;5035329;28;20170;-89
2022/12/30 08:41:29;;;;;;;3.90;1.33;;;6.00;99.90;;;;;;5034016;28;20234;-88
2022/12/30 08:43:58;;;;;;;8.83;1.90;;;6.10;99.90;;;;;;5032596;28;20597;-88
2022/12/30 08:46:26;;;;;;;6.63;1.50;;;6.10;99.90;;;;;;5033686;28;20765;-89
2022/12/30 08:48:53;;;;;;;8.77;1.53;;;6.20;99.90;;;;;;5034211;28;20250;-89
2022/12/30 08:51:19;;;;;;;8.30;1.40;;;6.20;99.90;;;;;;5033938;28;20730;-89
2022/12/30 08:53:45;;;;;;;7.60;1.73;;;6.30;99.90;;;;;;5033663;28;20167;-89
2022/12/30 08:56:15;;;;;;;9.03;1.67;;;6.30;99.90;;;;;;5033266;28;20203;-89
2022/12/30 08:58:41;;;;;;;5.60;1.23;;;6.30;99.90;;;;;;5033085;28;20230;-88
2022/12/30 09:01:08;;;;;;;9.50;1.90;;;6.40;99.90;;;;;;5033914;28;20186;-88
2022/12/30 09:03:33;;;;;;;11.80;1.57;;;6.40;99.90;;;;;;5033572;28;20182;-88
2022/12/30 09:05:59;;;;;;;8.50;1.43;;;6.50;99.90;;;;;;5033072;28;20218;-89
2022/12/30 09:08:25;;;;;;;11.93;1.37;;;6.60;99.90;;;;;;5033328;28;20179;-88
2022/12/30 09:11:03;;;;;;;6.23;1.13;;;6.60;99.90;;;;;;5032888;28;20181;-88
2022/12/30 09:13:30;;;;;;;8.90;1.27;;;6.70;99.90;;;;;;5033270;28;20997;-89
2022/12/30 09:15:56;;;;;;;4.40;1.20;;;6.70;99.90;;;;;;5032288;28;20289;-91
2022/12/30 09:18:22;;;;;;;7.57;1.40;;;6.60;99.90;;;;;;5031469;28;20642;-89
2022/12/30 09:20:48;;;;;;;6.70;1.43;;;6.70;99.90;;;;;;5031441;28;20273;-89
2022/12/30 09:23:14;;;;;;;7.43;1.53;;;6.70;99.90;;;;;;5031526;28;20265;-90
2022/12/30 09:25:40;;;;;;;7.90;1.40;;;6.80;99.90;;;;;;5032627;28;20182;-91
2022/12/30 09:28:06;;;;;;;7.17;1.70;;;6.90;99.90;;;;;;5032479;28;20208;-90
2022/12/30 09:30:32;;;;;;;8.20;1.50;;;6.90;99.90;;;;;;5030816;28;20206;-91
2022/12/30 09:32:58;;;;;;;7.13;1.33;;;7.00;99.90;;;;;;5030964;28;20611;-90
2022/12/30 09:35:23;;;;;;;6.30;1.63;;;7.00;99.90;;;;;;5032317;28;20194;-91
2022/12/30 09:37:49;;;;;;;8.57;1.50;;;7.00;99.90;;;;;;5030855;28;20199;-90
2022/12/30 09:40:21;;;;;;;6.30;1.20;;;7.00;99.90;;;;;;5031225;28;20281;-90
2022/12/30 09:45:42;;;;;;;10.00;1.30;;;7.10;99.90;;;;;;5031865;28;20193;-91
2022/12/30 09:48:15;;;;;;;5.30;1.70;;;7.10;99.90;;;;;;5032540;28;20524;-89
2022/12/30 09:50:55;;;;;;;8.00;1.60;;;7.10;99.90;;;;;;5031246;28;20630;-90
2022/12/30 09:53:51;;;;;;;8.83;1.53;;;7.20;99.90;;;;;;5032272;28;20159;-89
2022/12/30 09:56:42;;;;;;;11.53;1.60;;;7.30;99.90;;;;;;5030772;28;20233;-90
2022/12/30 09:59:29;;;;;;;8.70;1.90;;;7.30;99.90;;;;;;5031121;28;20226;-91
2022/12/30 10:02:13;;;;;;;7.53;1.67;;;7.30;99.90;;;;;;5031319;28;20189;-89
2022/12/30 10:04:39;;;;;;;8.07;1.87;;;7.30;99.90;;;;;;5031523;28;20217;-89
2022/12/30 10:07:21;;;;;;;6.53;1.57;;;7.30;99.90;;;;;;5031023;28;20230;-89
2022/12/30 10:09:56;;;;;;;8.47;1.53;;;7.40;99.90;;;;;;5031201;28;20178;-90
2022/12/30 10:12:33;;;;;;;10.70;2.13;;;7.40;99.90;;;;;;5031147;28;20178;-90
2022/12/30 10:15:35;;;;;;;11.13;2.93;;;7.50;99.90;;;;;;5030943;28;20201;-90
2022/12/30 10:18:46;;;;;;;8.47;1.33;;;7.50;99.90;;;;;;5030600;28;20272;-90
2022/12/30 10:21:27;;;;;;;10.50;1.43;;;7.60;99.90;;;;;;5030561;28;20182;-89
2022/12/30 10:24:08;;;;;;;8.03;1.60;;;7.70;99.90;;;;;;5031958;28;20626;-89
2022/12/30 10:26:47;;;;;;;6.33;1.40;;;7.70;99.90;;;;;;5031819;28;20218;-89
2022/12/30 10:29:30;;;;;;;5.63;1.20;;;7.70;99.90;;;;;;5030233;28;20228;-90
2022/12/30 10:31:59;;;;;;;6.93;1.70;;;7.70;99.90;;;;;;5031056;28;20688;-89
2022/12/30 10:34:29;;;;;;;3.23;1.20;;;7.70;99.90;;;;;;5030974;28;20585;-89
2022/12/30 10:37:04;;;;;;;7.10;1.40;;;7.70;99.90;;;;;;5030712;28;20568;-89
2022/12/30 10:39:36;;;;;;;8.07;1.63;;;7.70;99.90;;;;;;5030796;28;20235;-89
2022/12/30 10:42:12;;;;;;;4.77;1.30;;;7.80;99.90;;;;;;5030714;28;20175;-91
2022/12/30 10:45:18;;;;;;;5.63;1.23;;;7.80;99.90;;;;;;5029896;28;20202;-91
2022/12/30 10:48:16;;;;;;;12.10;1.60;;;7.90;99.90;;;;;;5030482;28;20291;-91
2022/12/30 10:50:45;;;;;;;6.47;1.40;;;7.90;99.90;;;;;;5030579;28;20186;-89
2022/12/30 10:53:24;;;;;;;5.43;1.13;;;7.80;99.90;;;;;;5032084;28;20159;-91
2022/12/30 10:55:53;;;;;;;8.80;1.07;;;7.90;99.90;;;;;;5030486;28;20183;-90
2022/12/30 10:58:40;;;;;;;10.23;1.30;;;8.00;99.90;;;;;;5030637;28;20725;-90
2022/12/30 11:01:09;;;;;;;6.90;1.10;;;8.10;99.90;;;;;;5030702;28;20186;-91
2022/12/30 11:03:41;;;;;;;6.10;1.17;;;8.10;99.90;;;;;;5030727;28;20654;-90
2022/12/30 11:06:32;;;;;;;7.07;1.17;;;8.20;99.90;;;;;;5031301;28;20609;-92
2022/12/30 11:09:13;;;;;;;5.23;1.17;;;8.20;99.90;;;;;;5035003;28;20169;-89
2022/12/30 11:14:42;;;;;;;5.20;1.27;;;8.30;99.90;;;;;;5035541;28;20249;-90
2022/12/30 11:17:23;;;;;;;5.67;1.30;;;8.40;99.90;;;;;;5034009;28;20210;-90
2022/12/30 11:19:59;;;;;;;5.20;1.20;;;8.40;99.90;;;;;;5035131;28;20574;-92
2022/12/30 11:22:26;;;;;;;5.80;1.07;;;8.30;99.90;;;;;;5034187;28;20178;-91
2022/12/30 11:25:16;;;;;;;6.60;1.20;;;8.40;99.90;;;;;;5033313;28;20190;-89
2022/12/30 11:27:46;;;;;;;5.40;1.03;;;8.40;99.90;;;;;;5033775;28;20229;-89
2022/12/30 11:30:36;;;;;;;7.17;1.23;;;8.40;99.90;;;;;;5033935;28;20174;-91
2022/12/30 11:33:05;;;;;;;6.03;1.20;;;8.40;99.90;;;;;;5033850;28;20220;-91
2022/12/30 11:35:44;;;;;;;6.43;1.00;;;8.40;99.90;;;;;;5033473;28;20174;-89
2022/12/30 11:38:38;;;;;;;5.03;1.40;;;8.40;99.90;;;;;;5033997;28;20175;-91
2022/12/30 11:41:34;;;;;;;6.40;1.30;;;8.50;99.90;;;;;;5027325;28;20186;-91
2022/12/30 11:43:59;;;;;;;6.33;1.30;;;8.40;99.90;;;;;;5035748;28;20288;-92
2022/12/30 11:46:34;;;;;;;5.03;1.03;;;8.50;99.90;;;;;;5037996;28;20290;-92
2022/12/30 11:49:05;;;;;;;7.17;1.10;;;8.50;99.90;;;;;;5034744;28;20168;-91
2022/12/30 11:51:41;;;;;;;4.97;1.20;;;8.50;99.90;;;;;;5034158;28;20532;-90
2022/12/30 11:54:10;;;;;;;3.20;0.97;;;8.50;99.90;;;;;;5033195;28;20175;-90
2022/12/30 11:56:59;;;;;;;5.00;1.07;;;8.50;99.90;;;;;;5034455;28;20221;-91
2022/12/30 11:59:42;;;;;;;5.30;1.13;;;8.60;99.90;;;;;;5033183;28;20729;-91
2022/12/30 12:02:23;;;;;;;6.47;1.07;;;8.60;99.90;;;;;;5033130;28;20171;-90
2022/12/30 12:04:49;;;;;;;3.10;0.90;;;8.70;99.90;;;;;;5033939;28;20211;-92
2022/12/30 12:07:18;;;;;;;5.53;1.13;;;8.70;99.90;;;;;;5032742;28;20207;-89
2022/12/30 12:09:50;;;;;;;3.77;1.00;;;8.70;99.90;;;;;;5032910;28;20232;-90
2022/12/30 12:12:19;;;;;;;6.00;1.03;;;8.70;99.90;;;;;;5034013;28;20266;-91
2022/12/30 12:14:56;;;;;;;7.60;1.20;;;8.80;99.90;;;;;;5032633;28;20634;-90
2022/12/30 12:17:54;;;;;;;5.77;1.43;;;8.70;99.90;;;;;;5032944;28;20662;-92
2022/12/30 12:20:42;;;;;;;5.82;1.50;;;8.80;99.90;;;;;;5027932;28;20213;-90
2022/12/30 12:23:42;;;;;;;3.53;1.00;;;8.80;99.90;;;;;;5033004;28;20193;-92
2022/12/30 12:26:33;;;;;;;3.67;1.05;;;9.00;99.90;;;;;;5033518;28;20214;-92
2022/12/30 12:28:59;;;;;;;5.70;0.90;;;9.00;99.90;;;;;;5032470;28;20197;-88
2022/12/30 12:31:48;;;;;;;6.40;1.23;;;9.00;99.90;;;;;;5032374;28;20619;-90
2022/12/30 12:34:30;;;;;;;3.57;0.90;;;9.00;99.90;;;;;;5033484;28;20171;-90
2022/12/30 12:37:25;;;;;;;6.90;1.23;;;9.00;99.90;;;;;;5032207;28;20202;-89
2022/12/30 12:40:09;;;;;;;4.63;1.00;;;8.90;99.90;;;;;;5032254;28;20169;-90
2022/12/30 12:43:09;;;;;;;4.50;0.87;;;8.80;99.90;;;;;;5033300;28;20178;-90
2022/12/30 12:46:04;;;;;;;4.60;1.10;;;8.70;99.90;;;;;;5032595;28;20198;-92
2022/12/30 12:49:15;;;;;;;6.73;1.20;;;8.60;99.90;;;;;;5023219;28;20186;-91
2022/12/30 12:51:46;;;;;;;2.93;1.03;;;8.60;99.90;;;;;;5030209;28;20630;-91
2022/12/30 12:54:31;;;;;;;4.70;1.30;;;8.60;99.90;;;;;;5032124;28;20597;-89
2022/12/30 12:57:02;;;;;;;5.65;1.48;;;8.70;99.90;;;;;;5032178;28;20210;-89
2022/12/30 12:59:52;;;;;;;4.90;1.03;;;8.70;99.90;;;;;;5031685;28;20233;-91
2022/12/30 13:02:56;;;;;;;5.30;1.10;;;8.70;99.90;;;;;;5041188;28;20190;-92
2022/12/30 13:06:17;;;;;;;3.13;0.90;;;8.70;99.90;;;;;;5048492;28;20684;-90
2022/12/30 13:09:22;;;;;;;6.40;1.10;;;8.60;99.90;;;;;;4998139;28;20223;-90
2022/12/30 13:12:04;;;;;;;3.13;1.10;;;8.60;99.90;;;;;;4989328;28;20229;-91
2022/12/30 13:14:47;;;;;;;5.60;1.10;;;8.50;99.90;;;;;;5051709;28;20728;-91
2022/12/30 13:17:32;;;;;;;2.73;1.10;;;8.50;99.90;;;;;;5052097;28;20201;-90
2022/12/30 13:20:05;;;;;;;10.50;2.30;;;8.50;99.90;;;;;;5051171;28;20189;-89
2022/12/30 13:22:38;;;;;;;4.03;1.47;;;8.50;99.90;;;;;;5053740;28;20664;-91
2022/12/30 13:25:18;;;;;;;7.17;1.33;;;8.50;99.90;;;;;;5051217;28;20210;-89
2022/12/30 13:27:48;;;;;;;9.47;1.87;;;8.50;99.90;;;;;;5043846;28;20214;-89
2022/12/30 13:30:17;;;;;;;6.10;2.70;;;8.50;99.90;;;;;;5031124;28;20183;-90
2022/12/30 13:32:59;;;;;;;5.67;3.10;;;8.50;99.90;;;;;;5032044;28;20538;-90
2022/12/30 13:35:57;;;;;;;7.07;1.60;;;8.40;99.90;;;;;;5031584;28;20273;-90
2022/12/30 13:38:58;;;;;;;4.43;1.30;;;8.50;99.90;;;;;;5031533;28;20166;-92
2022/12/30 13:41:29;;;;;;;6.80;1.10;;;8.40;99.90;;;;;;5031516;28;20182;-92
2022/12/30 13:43:57;;;;;;;4.63;1.10;;;8.40;99.90;;;;;;5031972;28;20197;-91
2022/12/30 13:46:32;;;;;;;2.50;1.00;;;8.40;99.90;;;;;;5031160;28;20210;-91
2022/12/30 13:49:17;;;;;;;3.70;0.82;;;8.30;99.90;;;;;;5031367;28;20559;-90
2022/12/30 13:51:59;;;;;;;4.00;1.00;;;8.30;99.90;;;;;;5031275;28;20244;-90
2022/12/30 13:54:28;;;;;;;3.20;1.10;;;8.20;99.90;;;;;;5031214;28;20198;-92
2022/12/30 13:56:55;;;;;;;3.63;0.93;;;8.20;99.90;;;;;;5030937;28;20210;-91
2022/12/30 13:59:34;;;;;;;4.67;1.00;;;8.20;99.90;;;;;;5032159;28;20233;-91
2022/12/30 14:02:18;;;;;;;5.73;1.20;;;8.10;99.90;;;;;;5031554;28;20182;-90
2022/12/30 14:04:46;;;;;;;2.75;0.85;;;8.00;99.90;;;;;;5031231;28;20245;-89
2022/12/30 14:07:37;;;;;;;2.38;1.35;;;8.00;99.90;;;;;;5031261;28;20658;-91
2022/12/30 14:10:15;;;;;;;4.85;1.27;;;8.00;99.90;;;;;;5011490;28;20222;-92
2022/12/30 14:12:45;;;;;;;3.27;1.03;;;7.90;99.90;;;;;;5011433;28;20175;-92
2022/12/30 14:15:37;;;;;;;6.97;1.20;;;8.00;99.90;;;;;;5011053;28;20202;-89
2022/12/30 14:18:34;;;;;;;5.23;1.20;;;8.00;99.90;;;;;;4993725;28;20321;-91